Cap Jervis — A8VL7 — position and weather

sailwx.info

Track history (hours):
 
Tides and Currents Weather Stations Pressure Air Temp Water Temp Dewpoint Dewpoint Depression Visibility Wind Speed Wind Dir Waves Ship Positions

Cap Jervis

Last reported at 2018-Apr-06 00:34 UTC. Time now 2018-Jul-18 05:02 UTC.
Position N 47°35' W 122°21'.
Warning: this ship's position is months out of date.

Length 264 m; draft 10 m.

Type: Ship (hazmat cat D). MMSI: 636092021.

Date/timePositionNaut miles runAvg speedWind from/ knotsBaromVisibWave heightAir tempDewpointWater temp
2018-Apr-06 00:34N 47°35' W 122°21'0 0.1
2018-Apr-06 00:28N 47°35' W 122°21'0 0.0
2018-Apr-05 23:58N 47°35' W 122°21'0 0.0
2018-Apr-05 23:28N 47°35' W 122°21'0 0.0
2018-Apr-05 22:58N 47°35' W 122°21'0 0.0
2018-Apr-05 22:28N 47°35' W 122°21'0 0.0
2018-Apr-05 21:58N 47°35' W 122°21'0 0.0
2018-Apr-05 21:28N 47°35' W 122°21'0 0.0
2018-Apr-05 20:58N 47°35' W 122°21'0 0.0
2018-Apr-05 20:28N 47°35' W 122°21'0 0.0
2018-Apr-05 19:55N 47°35' W 122°21'0 0.0
2018-Apr-05 19:28N 47°35' W 122°21'0 0.0
2018-Apr-05 18:58N 47°35' W 122°21'0 0.0
2018-Apr-05 18:28N 47°35' W 122°21'0 0.0
2018-Apr-05 17:58N 47°35' W 122°21'0 0.0
2018-Apr-05 17:28N 47°35' W 122°21'0 0.0
2018-Apr-05 16:58N 47°35' W 122°21'0 0.0
2018-Apr-05 16:29N 47°35' W 122°21'0 0.0
2018-Apr-05 15:59N 47°35' W 122°21'0 0.0
2018-Apr-05 15:29N 47°35' W 122°21'0 0.0
2018-Apr-05 14:59N 47°35' W 122°21'0 0.0
2018-Apr-05 14:29N 47°35' W 122°21'0 0.0
2018-Apr-05 13:59N 47°35' W 122°21'0 0.0
2018-Apr-05 13:29N 47°35' W 122°21'0 0.0
2018-Apr-05 12:56N 47°35' W 122°21'0 0.0
2018-Apr-05 12:29N 47°35' W 122°21'0 0.9
2018-Apr-05 12:00N 47°35' W 122°21'2 4.1
2018-Apr-05 11:30N 47°37' W 122°23'611.6
2018-Apr-05 11:00N 47°42' W 122°28'1019.7
2018-Apr-05 10:31N 47°51' W 122°28'918.6
2018-Apr-05 10:00N 47°59' W 122°36'1018.4
2018-Apr-05 09:29N 48°08' W 122°42'918.6
2018-Apr-05 09:00N 48°11' W 122°54'918.7
2018-Apr-05 08:30N 48°12' W 123°09'917.5
2018-Apr-05 08:00N 48°10' W 123°22'5 9.5
2018-Apr-05 07:30N 48°12' W 123°28'713.6
2018-Apr-05 06:59N 48°13' W 123°39'1014.5
2018-Apr-05 06:16N 48°13' W 123°54'514.3
2018-Apr-05 05:57N 48°15' W 124°00'715.5
2018-Apr-05 05:30N 48°18' W 124°10'815.6
2018-Apr-05 05:00N 48°21' W 124°21'815.4
2018-Apr-05 04:30N 48°24' W 124°31'714.8
2018-Apr-05 04:00N 48°28' W 124°41'714.6
2018-Apr-05 03:30N 48°28' W 124°52'611.9
2018-Apr-05 03:00N 48°27' W 125°01'714.2
2018-Apr-05 02:30N 48°21' W 125°05'814.9
2018-Apr-05 01:58N 48°14' W 125°10'714.8
2018-Apr-05 01:30N 48°07' W 125°15'6815.6
2018-Apr-04 21:09N 46°59' W 125°16'319.3
2018-Apr-04 21:01N 46°57' W 125°15'1019.6
2018-Apr-04 20:30N 46°47' W 125°16'1019.4
2018-Apr-04 20:01N 46°37' W 125°15'1019.5
2018-Apr-04 19:30N 46°27' W 125°14'1019.7
2018-Apr-04 19:00N 46°18' W 125°14'1019.6
2018-Apr-04 18:29N 46°07' W 125°13'2819.1
2018-Apr-04 17:00N 45°39' W 125°10'1019.2
2018-Apr-04 16:30N 45°29' W 125°10'40119.0
2018-Apr-03 19:22N 38°52' W 123°58'718.2
2018-Apr-03 19:00N 38°47' W 123°53'918.0
2018-Apr-03 18:30N 38°39' W 123°47'918.0
2018-Apr-03 18:00N 38°32' W 123°40'917.8
2018-Apr-03 17:30N 38°25' W 123°34'917.8
2018-Apr-03 17:00N 38°17' W 123°27'918.2
2018-Apr-03 16:30N 38°10' W 123°21'918.2
2018-Apr-03 16:00N 38°03' W 123°13'918.3
2018-Apr-03 15:30N 37°57' W 123°05'918.8
2018-Apr-03 15:00N 37°52' W 122°54'918.7
2018-Apr-03 14:30N 37°47' W 122°44'611.1
2018-Apr-03 14:00N 37°46' W 122°37'1019.1
2018-Apr-03 13:31N 37°51' W 122°27'612.3
2018-Apr-03 13:00N 37°48' W 122°20'2 3.3
2018-Apr-03 12:30N 37°48' W 122°17'1 3.0
2018-Apr-03 12:00N 37°48' W 122°19'0 0.0
2018-Apr-03 11:30N 37°48' W 122°19'0 0.0
2018-Apr-03 11:00N 37°48' W 122°19'0 0.0
2018-Apr-03 10:28N 37°48' W 122°19'0 0.0
2018-Apr-03 09:58N 37°48' W 122°19'0 0.0
2018-Apr-03 09:28N 37°48' W 122°19'0 0.0
2018-Apr-03 08:58N 37°48' W 122°19'0 0.0
2018-Apr-03 08:28N 37°48' W 122°19'0 0.0
2018-Apr-03 07:58N 37°48' W 122°19'0 0.0
2018-Apr-03 07:28N 37°48' W 122°19'0 0.0
2018-Apr-03 06:58N 37°48' W 122°19'0 0.0
2018-Apr-03 06:28N 37°48' W 122°19'0 0.0
2018-Apr-03 05:58N 37°48' W 122°19'0 0.0
2018-Apr-03 05:28N 37°48' W 122°19'0 0.0
2018-Apr-03 04:58N 37°48' W 122°19'0 0.0
2018-Apr-03 04:28N 37°48' W 122°19'0 0.0
2018-Apr-03 03:58N 37°48' W 122°19'0 0.0
2018-Apr-03 03:28N 37°48' W 122°19'0 0.0
2018-Apr-03 02:58N 37°48' W 122°19'0 0.0
2018-Apr-03 02:28N 37°48' W 122°19'0 0.0
2018-Apr-03 01:58N 37°48' W 122°19'0 0.0
2018-Apr-03 01:28N 37°48' W 122°19'0 0.0
2018-Apr-03 00:58N 37°48' W 122°19'0 0.0
2018-Apr-03 00:28N 37°48' W 122°19'0 0.0
2018-Apr-02 23:58N 37°48' W 122°19'0 0.0
2018-Apr-02 23:28N 37°48' W 122°19'0 0.0
2018-Apr-02 22:58N 37°48' W 122°19'0 0.0
2018-Apr-02 22:28N 37°48' W 122°19'0 0.0
2018-Apr-02 21:58N 37°48' W 122°19'0 0.0
2018-Apr-02 21:28N 37°48' W 122°19'0 0.0
2018-Apr-02 20:58N 37°48' W 122°19'0 0.0
2018-Apr-02 20:30N 37°48' W 122°19'0 0.0
2018-Apr-02 20:00N 37°48' W 122°19'0 0.0
2018-Apr-02 19:30N 37°48' W 122°19'0 0.0
2018-Apr-02 19:00N 37°48' W 122°19'0 0.0
2018-Apr-02 18:30N 37°48' W 122°19'0 0.0
2018-Apr-02 18:00N 37°48' W 122°19'0 0.0
2018-Apr-02 17:30N 37°48' W 122°19'0 0.0
2018-Apr-02 17:00N 37°48' W 122°19'0 0.0
2018-Apr-02 16:30N 37°48' W 122°19'0 0.0
2018-Apr-02 16:00N 37°48' W 122°19'0 0.0
2018-Apr-02 15:29N 37°48' W 122°19'0 0.0
2018-Apr-02 14:59N 37°48' W 122°19'1 1.8
2018-Apr-02 14:30N 37°48' W 122°20'1 2.4
2018-Apr-02 14:00N 37°47' W 122°21'0 0.2
2018-Apr-02 13:28N 37°47' W 122°21'0 0.0
2018-Apr-02 12:58N 37°47' W 122°21'0 0.1
2018-Apr-02 12:28N 37°47' W 122°21'0 0.1
2018-Apr-02 11:58N 37°47' W 122°21'0 0.0
2018-Apr-02 11:26N 37°47' W 122°21'0 0.1
2018-Apr-02 10:59N 37°47' W 122°21'0 0.1
2018-Apr-02 10:28N 37°47' W 122°21'0 0.0
2018-Apr-02 09:59N 37°47' W 122°21'0 0.2
2018-Apr-02 09:28N 37°47' W 122°21'0 0.3
2018-Apr-02 08:58N 37°47' W 122°21'0 0.1
2018-Apr-02 08:28N 37°47' W 122°21'0 0.1
2018-Apr-02 07:58N 37°47' W 122°21'0 0.0
2018-Apr-02 07:28N 37°47' W 122°21'0 0.0
2018-Apr-02 06:58N 37°47' W 122°21'0 0.0
2018-Apr-02 06:28N 37°47' W 122°21'0 0.0
2018-Apr-02 05:58N 37°47' W 122°21'0 0.1
2018-Apr-02 05:28N 37°47' W 122°21'0 0.1
2018-Apr-02 04:58N 37°47' W 122°21'0 0.0
2018-Apr-02 04:25N 37°47' W 122°21'0 0.1
2018-Apr-02 03:58N 37°47' W 122°21'0 0.1
2018-Apr-02 03:28N 37°47' W 122°21'0 0.3
2018-Apr-02 02:55N 37°47' W 122°21'0 0.2
2018-Apr-02 02:25N 37°47' W 122°21'0 0.1
2018-Apr-02 01:55N 37°47' W 122°21'0 0.0
2018-Apr-02 01:28N 37°47' W 122°21'0 0.0
2018-Apr-02 00:55N 37°47' W 122°21'0 0.0
2018-Apr-02 00:28N 37°47' W 122°21'0 0.0
2018-Apr-01 23:59N 37°47' W 122°21'0 0.0
2018-Apr-01 23:28N 37°47' W 122°21'0 0.0
2018-Apr-01 22:55N 37°47' W 122°21'0 0.0
2018-Apr-01 22:25N 37°47' W 122°21'0 0.0
2018-Apr-01 21:55N 37°47' W 122°21'0 0.4
2018-Apr-01 21:19N 37°47' W 122°21'0 0.0
2018-Apr-01 20:55N 37°47' W 122°21'0 0.1
2018-Apr-01 20:28N 37°47' W 122°21'0 0.1
2018-Apr-01 19:58N 37°47' W 122°21'0 0.0
2018-Apr-01 19:28N 37°47' W 122°21'0 0.0
2018-Apr-01 18:55N 37°47' W 122°21'0 0.0
2018-Apr-01 18:25N 37°47' W 122°21'0 0.0
2018-Apr-01 17:55N 37°47' W 122°21'0 0.0
2018-Apr-01 17:25N 37°47' W 122°21'0 0.0
2018-Apr-01 16:58N 37°47' W 122°21'0 0.0
2018-Apr-01 16:28N 37°47' W 122°21'0 0.0
2018-Apr-01 15:58N 37°47' W 122°21'0 0.2
2018-Apr-01 15:25N 37°47' W 122°21'0 0.4
2018-Apr-01 14:58N 37°47' W 122°21'0 0.1
2018-Apr-01 14:28N 37°47' W 122°21'0 0.0
2018-Apr-01 13:58N 37°47' W 122°21'0 0.2
2018-Apr-01 13:30N 37°47' W 122°21'4 8.1
2018-Apr-01 13:00N 37°49' W 122°26'714.3
2018-Apr-01 12:30N 37°47' W 122°34'612.4
2018-Apr-01 12:00N 37°44' W 122°41'4 7.9
2018-Apr-01 11:30N 37°42' W 122°45'5 9.0
2018-Apr-01 10:59N 37°39' W 122°50'510.6
2018-Apr-01 10:30N 37°36' W 122°55'510.7
2018-Apr-01 10:00N 37°33' W 123°01'510.0
2018-Apr-01 09:30N 37°29' W 123°04'6 9.8
2018-Apr-01 08:54N 37°23' W 123°03'410.5
2018-Apr-01 08:30N 37°19' W 122°60'510.6
2018-Apr-01 08:00N 37°15' W 122°56'510.8
2018-Apr-01 07:30N 37°10' W 122°53'510.8
2018-Apr-01 07:00N 37°05' W 122°50'610.8
2018-Apr-01 06:28N 37°00' W 122°46'610.7
2018-Apr-01 05:52N 36°55' W 122°42'410.7
2018-Apr-01 05:30N 36°52' W 122°39'510.7
2018-Apr-01 05:00N 36°47' W 122°36'510.9
2018-Apr-01 04:30N 36°42' W 122°32'510.8
2018-Apr-01 04:00N 36°38' W 122°29'610.8
2018-Apr-01 03:28N 36°33' W 122°25'510.9
2018-Apr-01 03:01N 36°28' W 122°22'510.8
2018-Apr-01 02:30N 36°24' W 122°18'611.0
2018-Apr-01 01:59N 36°19' W 122°15'511.1
2018-Apr-01 01:30N 36°14' W 122°11'611.3
2018-Apr-01 01:00N 36°09' W 122°08'510.9
2018-Apr-01 00:30N 36°05' W 122°04'510.7
2018-Apr-01 00:00N 36°00' W 122°01'610.9
2018-Mar-31 23:29N 35°55' W 121°57'510.6
2018-Mar-31 23:00N 35°51' W 121°54'510.8
2018-Mar-31 22:30N 35°46' W 121°50'910.8
2018-Mar-31 21:39N 35°38' W 121°45'311.1
2018-Mar-31 21:23N 35°36' W 121°43'511.2
2018-Mar-31 20:58N 35°32' W 121°40'511.4
2018-Mar-31 20:30N 35°27' W 121°36'711.6
2018-Mar-31 19:54N 35°21' W 121°32'411.0
2018-Mar-31 19:30N 35°18' W 121°29'611.6
2018-Mar-31 18:57N 35°12' W 121°25'511.6
2018-Mar-31 18:29N 35°07' W 121°22'611.7
2018-Mar-31 17:59N 35°02' W 121°18'711.9
2018-Mar-31 17:26N 34°57' W 121°14'511.8
2018-Mar-31 17:00N 34°53' W 121°11'611.5
2018-Mar-31 16:30N 34°48' W 121°07'611.5
2018-Mar-31 16:00N 34°43' W 121°04'611.5
2018-Mar-31 15:30N 34°38' W 121°00'611.5
2018-Mar-31 15:00N 34°33' W 120°56'611.4
2018-Mar-31 14:30N 34°28' W 120°53'610.9
2018-Mar-31 13:59N 34°25' W 120°47'511.4
2018-Mar-31 13:30N 34°24' W 120°41'511.1
2018-Mar-31 13:00N 34°22' W 120°34'611.2
2018-Mar-31 12:29N 34°21' W 120°27'611.5
2018-Mar-31 11:56N 34°19' W 120°20'511.6
2018-Mar-31 11:30N 34°18' W 120°14'611.2
2018-Mar-31 11:00N 34°16' W 120°08'610.6
2018-Mar-31 10:28N 34°15' W 120°01'6 9.7
2018-Mar-31 09:50N 34°13' W 119°54'3 9.4
2018-Mar-31 09:30N 34°12' W 119°50'5 9.3
2018-Mar-31 08:59N 34°11' W 119°45'5 9.6
2018-Mar-31 08:30N 34°10' W 119°39'5 9.4
2018-Mar-31 08:00N 34°08' W 119°34'5 9.5
2018-Mar-31 07:30N 34°07' W 119°28'6 9.6
2018-Mar-31 06:52N 34°06' W 119°21'4 9.5
2018-Mar-31 06:25N 34°05' W 119°16'510.8
2018-Mar-31 06:00N 34°02' W 119°11'611.8
2018-Mar-31 05:30N 33°59' W 119°05'611.9
2018-Mar-31 04:58N 33°56' W 118°58'711.6
2018-Mar-31 04:21N 33°53' W 118°51'411.6
2018-Mar-31 03:59N 33°51' W 118°47'611.9
2018-Mar-31 03:30N 33°48' W 118°40'611.5
2018-Mar-31 03:00N 33°45' W 118°35'611.9
2018-Mar-31 02:30N 33°42' W 118°28'611.7
2018-Mar-31 01:58N 33°39' W 118°22'510.9
2018-Mar-31 01:30N 33°38' W 118°16'510.0
2018-Mar-31 01:00N 33°41' W 118°11'4 7.7
2018-Mar-31 00:30N 33°45' W 118°13'1 2.7
2018-Mar-31 00:00N 33°46' W 118°14'0 0.0
2018-Mar-30 23:30N 33°46' W 118°14'0 0.0
2018-Mar-30 22:57N 33°46' W 118°14'0 0.0
2018-Mar-30 22:30N 33°46' W 118°14'0 0.0
2018-Mar-30 22:00N 33°46' W 118°14'0 0.0
2018-Mar-30 21:27N 33°46' W 118°14'0 0.0
2018-Mar-30 21:00N 33°46' W 118°14'0 0.0
2018-Mar-30 20:30N 33°46' W 118°14'0 0.0
2018-Mar-30 20:00N 33°46' W 118°14'0 0.0
2018-Mar-30 19:30N 33°46' W 118°14'0 0.0
2018-Mar-30 19:00N 33°46' W 118°14'0 0.0
2018-Mar-30 18:30N 33°46' W 118°14'0 0.0
2018-Mar-30 18:00N 33°46' W 118°14'0 0.0
2018-Mar-30 17:30N 33°46' W 118°14'0 0.0
2018-Mar-30 16:54N 33°46' W 118°14'0 0.0
2018-Mar-30 16:30N 33°46' W 118°14'0 0.0
2018-Mar-30 16:00N 33°46' W 118°14'0 0.1
2018-Mar-30 15:30N 33°46' W 118°14'0 0.1
2018-Mar-30 15:00N 33°46' W 118°14'0 0.0
2018-Mar-30 14:30N 33°46' W 118°14'0 0.0
2018-Mar-30 14:00N 33°46' W 118°14'0 0.0
2018-Mar-30 13:30N 33°46' W 118°14'0 0.0
2018-Mar-30 13:00N 33°46' W 118°14'0 0.0
2018-Mar-30 12:30N 33°46' W 118°14'0 0.0
2018-Mar-30 12:00N 33°46' W 118°14'0 0.0
2018-Mar-30 11:30N 33°46' W 118°14'0 0.6
2018-Mar-30 11:00N 33°46' W 118°14'1 2.4
2018-Mar-30 10:30N 33°45' W 118°13'4 8.1
2018-Mar-30 10:00N 33°41' W 118°11'3 6.8
2018-Mar-30 09:30N 33°38' W 118°10'5 9.9
2018-Mar-30 09:00N 33°33' W 118°09'510.5
2018-Mar-30 08:29N 33°28' W 118°06'510.3
2018-Mar-30 07:59N 33°23' W 118°04'510.3
2018-Mar-30 07:30N 33°18' W 118°02'510.5
2018-Mar-30 07:00N 33°14' W 118°00'511.0
2018-Mar-30 06:30N 33°08' W 117°58'510.9
2018-Mar-30 06:00N 33°03' W 117°55'611.0
2018-Mar-30 05:30N 32°59' W 117°53'611.1
2018-Mar-30 05:00N 32°54' W 117°49'611.0
2018-Mar-30 04:30N 32°49' W 117°46'510.6
2018-Mar-30 04:00N 32°44' W 117°44'611.3
2018-Mar-30 03:30N 32°39' W 117°40'816.2
2018-Mar-30 03:00N 32°32' W 117°36'816.1
2018-Mar-30 02:30N 32°24' W 117°33'816.4
2018-Mar-30 02:00N 32°16' W 117°30'815.8
2018-Mar-30 01:30N 32°09' W 117°28'611.9
2018-Mar-30 01:00N 32°03' W 117°26'511.0
2018-Mar-30 00:30N 31°58' W 117°24'610.8
2018-Mar-29 23:58N 31°52' W 117°22'611.0
2018-Mar-29 23:23N 31°46' W 117°20'411.1
2018-Mar-29 23:00N 31°42' W 117°19'611.2
2018-Mar-29 22:31N 31°36' W 117°17'1213.4
2018-Mar-29 21:36N 31°25' W 117°13'115.6
2018-Mar-29 21:30N 31°23' W 117°13'915.6
2018-Mar-29 20:57N 31°15' W 117°10'715.9
2018-Mar-29 20:31N 31°08' W 117°08'816.4
2018-Mar-29 20:00N 31°00' W 117°05'816.5
2018-Mar-29 19:30N 30°53' W 117°02'3817.1
2018-Mar-29 17:17N 30°16' W 116°51'1716.9
2018-Mar-29 16:18N 29°60' W 116°45'517.0
2018-Mar-29 15:59N 29°55' W 116°44'2716.7
2018-Mar-29 14:22N 29°29' W 116°35'816.7
2018-Mar-29 13:52N 29°21' W 116°33'616.4
2018-Mar-29 13:31N 29°15' W 116°31'816.8
2018-Mar-29 13:00N 29°07' W 116°28'916.8
2018-Mar-29 12:28N 28°58' W 116°25'1216.8
2018-Mar-29 11:46N 28°48' W 116°19'616.7
2018-Mar-29 11:25N 28°43' W 116°16'816.8
2018-Mar-29 10:58N 28°36' W 116°12'816.8
2018-Mar-29 10:30N 28°29' W 116°08'816.7
2018-Mar-29 10:00N 28°21' W 116°04'916.6
2018-Mar-29 09:29N 28°14' W 115°59'916.8
2018-Mar-29 08:57N 28°06' W 115°53'816.5
2018-Mar-29 08:30N 28°00' W 115°49'15016.5
2018-Mar-28 23:24N 25°56' W 114°14'28316.3
2018-Mar-28 06:00N 22°24' W 110°48'   020 / 171014.810.8 19.613.820.0
Track history (hours):
 
Tides and Currents Weather Stations Pressure Air Temp Water Temp Dewpoint Dewpoint Depression Visibility Wind Speed Wind Dir Waves Ship Positions

Cap Jervis

Last reported at 2018-Apr-06 00:34 UTC. Time now 2018-Jul-18 05:02 UTC.
Position N 47°35' W 122°21'.
Warning: this ship's position is months out of date.

Length 264 m; draft 10 m.

Type: Ship (hazmat cat D). MMSI: 636092021.

Date/timePositionNaut miles runAvg speedWind from/ knotsBaromVisibWave heightAir tempDewpointWater temp
2018-Apr-06 00:34N 47°35' W 122°21'0 0.1
2018-Apr-06 00:28N 47°35' W 122°21'0 0.0
2018-Apr-05 23:58N 47°35' W 122°21'0 0.0
2018-Apr-05 23:28N 47°35' W 122°21'0 0.0
2018-Apr-05 22:58N 47°35' W 122°21'0 0.0
2018-Apr-05 22:28N 47°35' W 122°21'0 0.0
2018-Apr-05 21:58N 47°35' W 122°21'0 0.0
2018-Apr-05 21:28N 47°35' W 122°21'0 0.0
2018-Apr-05 20:58N 47°35' W 122°21'0 0.0
2018-Apr-05 20:28N 47°35' W 122°21'0 0.0
2018-Apr-05 19:55N 47°35' W 122°21'0 0.0
2018-Apr-05 19:28N 47°35' W 122°21'0 0.0
2018-Apr-05 18:58N 47°35' W 122°21'0 0.0
2018-Apr-05 18:28N 47°35' W 122°21'0 0.0
2018-Apr-05 17:58N 47°35' W 122°21'0 0.0
2018-Apr-05 17:28N 47°35' W 122°21'0 0.0
2018-Apr-05 16:58N 47°35' W 122°21'0 0.0
2018-Apr-05 16:29N 47°35' W 122°21'0 0.0
2018-Apr-05 15:59N 47°35' W 122°21'0 0.0
2018-Apr-05 15:29N 47°35' W 122°21'0 0.0
2018-Apr-05 14:59N 47°35' W 122°21'0 0.0
2018-Apr-05 14:29N 47°35' W 122°21'0 0.0
2018-Apr-05 13:59N 47°35' W 122°21'0 0.0
2018-Apr-05 13:29N 47°35' W 122°21'0 0.0
2018-Apr-05 12:56N 47°35' W 122°21'0 0.0
2018-Apr-05 12:29N 47°35' W 122°21'0 0.9
2018-Apr-05 12:00N 47°35' W 122°21'2 4.1
2018-Apr-05 11:30N 47°37' W 122°23'611.6
2018-Apr-05 11:00N 47°42' W 122°28'1019.7
2018-Apr-05 10:31N 47°51' W 122°28'918.6
2018-Apr-05 10:00N 47°59' W 122°36'1018.4
2018-Apr-05 09:29N 48°08' W 122°42'918.6
2018-Apr-05 09:00N 48°11' W 122°54'918.7
2018-Apr-05 08:30N 48°12' W 123°09'917.5
2018-Apr-05 08:00N 48°10' W 123°22'5 9.5
2018-Apr-05 07:30N 48°12' W 123°28'713.6
2018-Apr-05 06:59N 48°13' W 123°39'1014.5
2018-Apr-05 06:16N 48°13' W 123°54'514.3
2018-Apr-05 05:57N 48°15' W 124°00'715.5
2018-Apr-05 05:30N 48°18' W 124°10'815.6
2018-Apr-05 05:00N 48°21' W 124°21'815.4
2018-Apr-05 04:30N 48°24' W 124°31'714.8
2018-Apr-05 04:00N 48°28' W 124°41'714.6
2018-Apr-05 03:30N 48°28' W 124°52'611.9
2018-Apr-05 03:00N 48°27' W 125°01'714.2
2018-Apr-05 02:30N 48°21' W 125°05'814.9
2018-Apr-05 01:58N 48°14' W 125°10'714.8
2018-Apr-05 01:30N 48°07' W 125°15'6815.6
2018-Apr-04 21:09N 46°59' W 125°16'319.3
2018-Apr-04 21:01N 46°57' W 125°15'1019.6
2018-Apr-04 20:30N 46°47' W 125°16'1019.4
2018-Apr-04 20:01N 46°37' W 125°15'1019.5
2018-Apr-04 19:30N 46°27' W 125°14'1019.7
2018-Apr-04 19:00N 46°18' W 125°14'1019.6
2018-Apr-04 18:29N 46°07' W 125°13'2819.1
2018-Apr-04 17:00N 45°39' W 125°10'1019.2
2018-Apr-04 16:30N 45°29' W 125°10'40119.0
2018-Apr-03 19:22N 38°52' W 123°58'718.2
2018-Apr-03 19:00N 38°47' W 123°53'918.0
2018-Apr-03 18:30N 38°39' W 123°47'918.0
2018-Apr-03 18:00N 38°32' W 123°40'917.8
2018-Apr-03 17:30N 38°25' W 123°34'917.8
2018-Apr-03 17:00N 38°17' W 123°27'918.2
2018-Apr-03 16:30N 38°10' W 123°21'918.2
2018-Apr-03 16:00N 38°03' W 123°13'918.3
2018-Apr-03 15:30N 37°57' W 123°05'918.8
2018-Apr-03 15:00N 37°52' W 122°54'918.7
2018-Apr-03 14:30N 37°47' W 122°44'611.1
2018-Apr-03 14:00N 37°46' W 122°37'1019.1
2018-Apr-03 13:31N 37°51' W 122°27'612.3
2018-Apr-03 13:00N 37°48' W 122°20'2 3.3
2018-Apr-03 12:30N 37°48' W 122°17'1 3.0
2018-Apr-03 12:00N 37°48' W 122°19'0 0.0
2018-Apr-03 11:30N 37°48' W 122°19'0 0.0
2018-Apr-03 11:00N 37°48' W 122°19'0 0.0
2018-Apr-03 10:28N 37°48' W 122°19'0 0.0
2018-Apr-03 09:58N 37°48' W 122°19'0 0.0
2018-Apr-03 09:28N 37°48' W 122°19'0 0.0
2018-Apr-03 08:58N 37°48' W 122°19'0 0.0
2018-Apr-03 08:28N 37°48' W 122°19'0 0.0
2018-Apr-03 07:58N 37°48' W 122°19'0 0.0
2018-Apr-03 07:28N 37°48' W 122°19'0 0.0
2018-Apr-03 06:58N 37°48' W 122°19'0 0.0
2018-Apr-03 06:28N 37°48' W 122°19'0 0.0
2018-Apr-03 05:58N 37°48' W 122°19'0 0.0
2018-Apr-03 05:28N 37°48' W 122°19'0 0.0
2018-Apr-03 04:58N 37°48' W 122°19'0 0.0
2018-Apr-03 04:28N 37°48' W 122°19'0 0.0
2018-Apr-03 03:58N 37°48' W 122°19'0 0.0
2018-Apr-03 03:28N 37°48' W 122°19'0 0.0
2018-Apr-03 02:58N 37°48' W 122°19'0 0.0
2018-Apr-03 02:28N 37°48' W 122°19'0 0.0
2018-Apr-03 01:58N 37°48' W 122°19'0 0.0
2018-Apr-03 01:28N 37°48' W 122°19'0 0.0
2018-Apr-03 00:58N 37°48' W 122°19'0 0.0
2018-Apr-03 00:28N 37°48' W 122°19'0 0.0
2018-Apr-02 23:58N 37°48' W 122°19'0 0.0
2018-Apr-02 23:28N 37°48' W 122°19'0 0.0
2018-Apr-02 22:58N 37°48' W 122°19'0 0.0
2018-Apr-02 22:28N 37°48' W 122°19'0 0.0
2018-Apr-02 21:58N 37°48' W 122°19'0 0.0
2018-Apr-02 21:28N 37°48' W 122°19'0 0.0
2018-Apr-02 20:58N 37°48' W 122°19'0 0.0
2018-Apr-02 20:30N 37°48' W 122°19'0 0.0
2018-Apr-02 20:00N 37°48' W 122°19'0 0.0
2018-Apr-02 19:30N 37°48' W 122°19'0 0.0
2018-Apr-02 19:00N 37°48' W 122°19'0 0.0
2018-Apr-02 18:30N 37°48' W 122°19'0 0.0
2018-Apr-02 18:00N 37°48' W 122°19'0 0.0
2018-Apr-02 17:30N 37°48' W 122°19'0 0.0
2018-Apr-02 17:00N 37°48' W 122°19'0 0.0
2018-Apr-02 16:30N 37°48' W 122°19'0 0.0
2018-Apr-02 16:00N 37°48' W 122°19'0 0.0
2018-Apr-02 15:29N 37°48' W 122°19'0 0.0
2018-Apr-02 14:59N 37°48' W 122°19'1 1.8
2018-Apr-02 14:30N 37°48' W 122°20'1 2.4
2018-Apr-02 14:00N 37°47' W 122°21'0 0.2
2018-Apr-02 13:28N 37°47' W 122°21'0 0.0
2018-Apr-02 12:58N 37°47' W 122°21'0 0.1
2018-Apr-02 12:28N 37°47' W 122°21'0 0.1
2018-Apr-02 11:58N 37°47' W 122°21'0 0.0
2018-Apr-02 11:26N 37°47' W 122°21'0 0.1
2018-Apr-02 10:59N 37°47' W 122°21'0 0.1
2018-Apr-02 10:28N 37°47' W 122°21'0 0.0
2018-Apr-02 09:59N 37°47' W 122°21'0 0.2
2018-Apr-02 09:28N 37°47' W 122°21'0 0.3
2018-Apr-02 08:58N 37°47' W 122°21'0 0.1
2018-Apr-02 08:28N 37°47' W 122°21'0 0.1
2018-Apr-02 07:58N 37°47' W 122°21'0 0.0
2018-Apr-02 07:28N 37°47' W 122°21'0 0.0
2018-Apr-02 06:58N 37°47' W 122°21'0 0.0
2018-Apr-02 06:28N 37°47' W 122°21'0 0.0
2018-Apr-02 05:58N 37°47' W 122°21'0 0.1
2018-Apr-02 05:28N 37°47' W 122°21'0 0.1
2018-Apr-02 04:58N 37°47' W 122°21'0 0.0
2018-Apr-02 04:25N 37°47' W 122°21'0 0.1
2018-Apr-02 03:58N 37°47' W 122°21'0 0.1
2018-Apr-02 03:28N 37°47' W 122°21'0 0.3
2018-Apr-02 02:55N 37°47' W 122°21'0 0.2
2018-Apr-02 02:25N 37°47' W 122°21'0 0.1
2018-Apr-02 01:55N 37°47' W 122°21'0 0.0
2018-Apr-02 01:28N 37°47' W 122°21'0 0.0
2018-Apr-02 00:55N 37°47' W 122°21'0 0.0
2018-Apr-02 00:28N 37°47' W 122°21'0 0.0
2018-Apr-01 23:59N 37°47' W 122°21'0 0.0
2018-Apr-01 23:28N 37°47' W 122°21'0 0.0
2018-Apr-01 22:55N 37°47' W 122°21'0 0.0
2018-Apr-01 22:25N 37°47' W 122°21'0 0.0
2018-Apr-01 21:55N 37°47' W 122°21'0 0.4
2018-Apr-01 21:19N 37°47' W 122°21'0 0.0
2018-Apr-01 20:55N 37°47' W 122°21'0 0.1
2018-Apr-01 20:28N 37°47' W 122°21'0 0.1
2018-Apr-01 19:58N 37°47' W 122°21'0 0.0
2018-Apr-01 19:28N 37°47' W 122°21'0 0.0
2018-Apr-01 18:55N 37°47' W 122°21'0 0.0
2018-Apr-01 18:25N 37°47' W 122°21'0 0.0
2018-Apr-01 17:55N 37°47' W 122°21'0 0.0
2018-Apr-01 17:25N 37°47' W 122°21'0 0.0
2018-Apr-01 16:58N 37°47' W 122°21'0 0.0
2018-Apr-01 16:28N 37°47' W 122°21'0 0.0
2018-Apr-01 15:58N 37°47' W 122°21'0 0.2
2018-Apr-01 15:25N 37°47' W 122°21'0 0.4
2018-Apr-01 14:58N 37°47' W 122°21'0 0.1
2018-Apr-01 14:28N 37°47' W 122°21'0 0.0
2018-Apr-01 13:58N 37°47' W 122°21'0 0.2
2018-Apr-01 13:30N 37°47' W 122°21'4 8.1
2018-Apr-01 13:00N 37°49' W 122°26'714.3
2018-Apr-01 12:30N 37°47' W 122°34'612.4
2018-Apr-01 12:00N 37°44' W 122°41'4 7.9
2018-Apr-01 11:30N 37°42' W 122°45'5 9.0
2018-Apr-01 10:59N 37°39' W 122°50'510.6
2018-Apr-01 10:30N 37°36' W 122°55'510.7
2018-Apr-01 10:00N 37°33' W 123°01'510.0
2018-Apr-01 09:30N 37°29' W 123°04'6 9.8
2018-Apr-01 08:54N 37°23' W 123°03'410.5
2018-Apr-01 08:30N 37°19' W 122°60'510.6
2018-Apr-01 08:00N 37°15' W 122°56'510.8
2018-Apr-01 07:30N 37°10' W 122°53'510.8
2018-Apr-01 07:00N 37°05' W 122°50'610.8
2018-Apr-01 06:28N 37°00' W 122°46'610.7
2018-Apr-01 05:52N 36°55' W 122°42'410.7
2018-Apr-01 05:30N 36°52' W 122°39'510.7
2018-Apr-01 05:00N 36°47' W 122°36'510.9
2018-Apr-01 04:30N 36°42' W 122°32'510.8
2018-Apr-01 04:00N 36°38' W 122°29'610.8
2018-Apr-01 03:28N 36°33' W 122°25'510.9
2018-Apr-01 03:01N 36°28' W 122°22'510.8
2018-Apr-01 02:30N 36°24' W 122°18'611.0
2018-Apr-01 01:59N 36°19' W 122°15'511.1
2018-Apr-01 01:30N 36°14' W 122°11'611.3
2018-Apr-01 01:00N 36°09' W 122°08'510.9
2018-Apr-01 00:30N 36°05' W 122°04'510.7
2018-Apr-01 00:00N 36°00' W 122°01'610.9
2018-Mar-31 23:29N 35°55' W 121°57'510.6
2018-Mar-31 23:00N 35°51' W 121°54'510.8
2018-Mar-31 22:30N 35°46' W 121°50'910.8
2018-Mar-31 21:39N 35°38' W 121°45'311.1
2018-Mar-31 21:23N 35°36' W 121°43'511.2
2018-Mar-31 20:58N 35°32' W 121°40'511.4
2018-Mar-31 20:30N 35°27' W 121°36'711.6
2018-Mar-31 19:54N 35°21' W 121°32'411.0
2018-Mar-31 19:30N 35°18' W 121°29'611.6
2018-Mar-31 18:57N 35°12' W 121°25'511.6
2018-Mar-31 18:29N 35°07' W 121°22'611.7
2018-Mar-31 17:59N 35°02' W 121°18'711.9
2018-Mar-31 17:26N 34°57' W 121°14'511.8
2018-Mar-31 17:00N 34°53' W 121°11'611.5
2018-Mar-31 16:30N 34°48' W 121°07'611.5
2018-Mar-31 16:00N 34°43' W 121°04'611.5
2018-Mar-31 15:30N 34°38' W 121°00'611.5
2018-Mar-31 15:00N 34°33' W 120°56'611.4
2018-Mar-31 14:30N 34°28' W 120°53'610.9
2018-Mar-31 13:59N 34°25' W 120°47'511.4
2018-Mar-31 13:30N 34°24' W 120°41'511.1
2018-Mar-31 13:00N 34°22' W 120°34'611.2
2018-Mar-31 12:29N 34°21' W 120°27'611.5
2018-Mar-31 11:56N 34°19' W 120°20'511.6
2018-Mar-31 11:30N 34°18' W 120°14'611.2
2018-Mar-31 11:00N 34°16' W 120°08'610.6
2018-Mar-31 10:28N 34°15' W 120°01'6 9.7
2018-Mar-31 09:50N 34°13' W 119°54'3 9.4
2018-Mar-31 09:30N 34°12' W 119°50'5 9.3
2018-Mar-31 08:59N 34°11' W 119°45'5 9.6
2018-Mar-31 08:30N 34°10' W 119°39'5 9.4
2018-Mar-31 08:00N 34°08' W 119°34'5 9.5
2018-Mar-31 07:30N 34°07' W 119°28'6 9.6
2018-Mar-31 06:52N 34°06' W 119°21'4 9.5
2018-Mar-31 06:25N 34°05' W 119°16'510.8
2018-Mar-31 06:00N 34°02' W 119°11'611.8
2018-Mar-31 05:30N 33°59' W 119°05'611.9
2018-Mar-31 04:58N 33°56' W 118°58'711.6
2018-Mar-31 04:21N 33°53' W 118°51'411.6
2018-Mar-31 03:59N 33°51' W 118°47'611.9
2018-Mar-31 03:30N 33°48' W 118°40'611.5
2018-Mar-31 03:00N 33°45' W 118°35'611.9
2018-Mar-31 02:30N 33°42' W 118°28'611.7
2018-Mar-31 01:58N 33°39' W 118°22'510.9
2018-Mar-31 01:30N 33°38' W 118°16'510.0
2018-Mar-31 01:00N 33°41' W 118°11'4 7.7
2018-Mar-31 00:30N 33°45' W 118°13'1 2.7
2018-Mar-31 00:00N 33°46' W 118°14'0 0.0
2018-Mar-30 23:30N 33°46' W 118°14'0 0.0
2018-Mar-30 22:57N 33°46' W 118°14'0 0.0
2018-Mar-30 22:30N 33°46' W 118°14'0 0.0
2018-Mar-30 22:00N 33°46' W 118°14'0 0.0
2018-Mar-30 21:27N 33°46' W 118°14'0 0.0
2018-Mar-30 21:00N 33°46' W 118°14'0 0.0
2018-Mar-30 20:30N 33°46' W 118°14'0 0.0
2018-Mar-30 20:00N 33°46' W 118°14'0 0.0
2018-Mar-30 19:30N 33°46' W 118°14'0 0.0
2018-Mar-30 19:00N 33°46' W 118°14'0 0.0
2018-Mar-30 18:30N 33°46' W 118°14'0 0.0
2018-Mar-30 18:00N 33°46' W 118°14'0 0.0
2018-Mar-30 17:30N 33°46' W 118°14'0 0.0
2018-Mar-30 16:54N 33°46' W 118°14'0 0.0
2018-Mar-30 16:30N 33°46' W 118°14'0 0.0
2018-Mar-30 16:00N 33°46' W 118°14'0 0.1
2018-Mar-30 15:30N 33°46' W 118°14'0 0.1
2018-Mar-30 15:00N 33°46' W 118°14'0 0.0
2018-Mar-30 14:30N 33°46' W 118°14'0 0.0
2018-Mar-30 14:00N 33°46' W 118°14'0 0.0
2018-Mar-30 13:30N 33°46' W 118°14'0 0.0
2018-Mar-30 13:00N 33°46' W 118°14'0 0.0
2018-Mar-30 12:30N 33°46' W 118°14'0 0.0
2018-Mar-30 12:00N 33°46' W 118°14'0 0.0
2018-Mar-30 11:30N 33°46' W 118°14'0 0.6
2018-Mar-30 11:00N 33°46' W 118°14'1 2.4
2018-Mar-30 10:30N 33°45' W 118°13'4 8.1
2018-Mar-30 10:00N 33°41' W 118°11'3 6.8
2018-Mar-30 09:30N 33°38' W 118°10'5 9.9
2018-Mar-30 09:00N 33°33' W 118°09'510.5
2018-Mar-30 08:29N 33°28' W 118°06'510.3
2018-Mar-30 07:59N 33°23' W 118°04'510.3
2018-Mar-30 07:30N 33°18' W 118°02'510.5
2018-Mar-30 07:00N 33°14' W 118°00'511.0
2018-Mar-30 06:30N 33°08' W 117°58'510.9
2018-Mar-30 06:00N 33°03' W 117°55'611.0
2018-Mar-30 05:30N 32°59' W 117°53'611.1
2018-Mar-30 05:00N 32°54' W 117°49'611.0
2018-Mar-30 04:30N 32°49' W 117°46'510.6
2018-Mar-30 04:00N 32°44' W 117°44'611.3
2018-Mar-30 03:30N 32°39' W 117°40'816.2
2018-Mar-30 03:00N 32°32' W 117°36'816.1
2018-Mar-30 02:30N 32°24' W 117°33'816.4
2018-Mar-30 02:00N 32°16' W 117°30'815.8
2018-Mar-30 01:30N 32°09' W 117°28'611.9
2018-Mar-30 01:00N 32°03' W 117°26'511.0
2018-Mar-30 00:30N 31°58' W 117°24'610.8
2018-Mar-29 23:58N 31°52' W 117°22'611.0
2018-Mar-29 23:23N 31°46' W 117°20'411.1
2018-Mar-29 23:00N 31°42' W 117°19'611.2
2018-Mar-29 22:31N 31°36' W 117°17'1213.4
2018-Mar-29 21:36N 31°25' W 117°13'115.6
2018-Mar-29 21:30N 31°23' W 117°13'915.6
2018-Mar-29 20:57N 31°15' W 117°10'715.9
2018-Mar-29 20:31N 31°08' W 117°08'816.4
2018-Mar-29 20:00N 31°00' W 117°05'816.5
2018-Mar-29 19:30N 30°53' W 117°02'3817.1
2018-Mar-29 17:17N 30°16' W 116°51'1716.9
2018-Mar-29 16:18N 29°60' W 116°45'517.0
2018-Mar-29 15:59N 29°55' W 116°44'2716.7
2018-Mar-29 14:22N 29°29' W 116°35'816.7
2018-Mar-29 13:52N 29°21' W 116°33'616.4
2018-Mar-29 13:31N 29°15' W 116°31'816.8
2018-Mar-29 13:00N 29°07' W 116°28'916.8
2018-Mar-29 12:28N 28°58' W 116°25'1216.8
2018-Mar-29 11:46N 28°48' W 116°19'616.7
2018-Mar-29 11:25N 28°43' W 116°16'816.8
2018-Mar-29 10:58N 28°36' W 116°12'816.8
2018-Mar-29 10:30N 28°29' W 116°08'816.7
2018-Mar-29 10:00N 28°21' W 116°04'916.6
2018-Mar-29 09:29N 28°14' W 115°59'916.8
2018-Mar-29 08:57N 28°06' W 115°53'816.5
2018-Mar-29 08:30N 28°00' W 115°49'15016.5
2018-Mar-28 23:24N 25°56' W 114°14'28316.3
2018-Mar-28 06:00N 22°24' W 110°48'   020 / 171014.810.8 19.613.820.0

Dump ship's entire track history